Flight Track Log - Related Links

Times and Time Zones

All times are in EDT time to prevent confusion due to time zone crossing. See the UAL33 flight status page for this flight to view local times or setup timezone preferences in your user account.

Time Position Orientation Groundspeed Altitude Reporting Facility
EDT Latitude Longitude Course Direction KTS MPH feet Rate Location/Type
Sat 05:58:38 AM 35.7126 140.4131 149° Southeast 173 199 2,300  Level FlightAware ADS-B
Sat 05:58:54 AM 35.7004 140.4217 150° Southeast 185 213 3,000 1,574 Climbing FlightAware ADS-B
Sat 05:59:39 AM 35.6634 140.4482 150° Southeast 240 276 3,900 1,385 Climbing FlightAware ADS-B
Sat 05:59:59 AM 35.6431 140.4630 148° Southeast 251 289 4,500 2,195 Climbing FlightAware ADS-B
Sat 06:00:20 AM 35.6219 140.4783 149° Southeast 267 307 5,400 2,700 Climbing FlightAware ADS-B
Sat 06:00:39 AM 35.6007 140.4935 149° Southeast 266 306 6,300 2,850 Climbing FlightAware ADS-B
Sat 06:01:00 AM 35.5775 140.5102 149° Southeast 269 310 7,300 2,294 Climbing FlightAware ADS-B
Sat 06:01:13 AM 35.5728 140.5136 149° Southeast 278 320 7,600 2,842 Climbing FlightAware ADS-B (ZPPP / KMG)
Sat 06:01:19 AM 35.5559 140.5258 150° Southeast 281 323 8,200 2,455 Climbing FlightAware ADS-B
Sat 06:01:35 AM 35.5478 140.5316 149° Southeast 284 327 8,500 2,286 Climbing FlightAware ADS-B (ZPPP / KMG)
Sat 06:01:40 AM 35.5312 140.5435 149° Southeast 283 326 9,000 2,000 Climbing FlightAware ADS-B
Sat 06:02:05 AM 35.5148 140.5553 147° Southeast 299 344 9,500 1,846 Climbing FlightAware ADS-B (ZPPP / KMG)
Sat 06:02:19 AM 35.4889 140.5849 132° Southeast 315 362 10,200 1,448 Climbing FlightAware ADS-B
Sat 06:02:34 AM 35.4821 140.5939 132° Southeast 328 377 10,200 900 Level FlightAware ADS-B (ZPPP / KMG)
Sat 06:02:59 AM 35.4518 140.6485 114° Southeast 365 420 10,800 2,182 Climbing FlightAware ADS-B
Sat 06:03:40 AM 35.4370 140.7325 91° East 378 435 12,600 2,361 Climbing FlightAware ADS-B
Sat 06:04:00 AM 35.4384 140.7572 82° East 380 437 13,200 2,300 Climbing FlightAware ADS-B (ZPPP / KMG)
Sat 06:04:40 AM 35.4538 140.8594 81° East 394 453 14,900 2,372 Climbing FlightAware ADS-B
Sat 06:04:43 AM 35.4517 140.8450 79° East 394 453 14,900 1,846 Level FlightAware ADS-B (ZPPP / KMG)
Sat 06:05:19 AM 35.4685 140.9488 76° East 404 465 16,100 2,211 Climbing FlightAware ADS-B
Sat 06:05:59 AM 35.4960 141.0330 64° Northeast 407 468 17,700 2,222 Climbing FlightAware ADS-B
Sat 06:06:40 AM 35.5303 141.1196 65° Northeast 418 481 19,100 1,920 Climbing FlightAware ADS-B
Sat 06:07:39 AM 35.5821 141.2512 64° Northeast 442 509 20,900 1,860 Climbing FlightAware ADS-B
Sat 06:08:20 AM 35.6178 141.3429 64° Northeast 454 522 22,200 1,800 Climbing FlightAware ADS-B
Sat 06:08:59 AM 35.6537 141.4344 65° Northeast 461 531 23,300 1,671 Climbing FlightAware ADS-B
Sat 06:09:39 AM 35.6914 141.5314 66° East 473 544 24,400 1,650 Climbing FlightAware ADS-B
Sat 06:10:19 AM 35.7300 141.6309 65° Northeast 488 562 25,500 1,575 Climbing FlightAware ADS-B
Sat 06:10:59 AM 35.7693 141.7326 65° Northeast 498 573 26,500 1,519 Climbing FlightAware ADS-B
Sat 06:11:38 AM 35.8076 141.8321 66° East 502 578 27,500 1,481 Climbing FlightAware ADS-B
Sat 06:12:20 AM 35.8498 141.9414 66° East 511 588 28,500 1,240 Climbing FlightAware ADS-B
Sat 06:13:39 AM 35.9322 142.1568 65° Northeast 535 616 30,000 1,100 Climbing FlightAware ADS-B
Sat 06:14:20 AM 35.9757 142.2710 66° East 541 623 30,700 1,169 Climbing FlightAware ADS-B
Sat 06:16:54 AM 36.1418 142.7116 66° East 560 644 33,800 65 Climbing FlightAware ADS-B
Sat 06:17:00 AM 36.1788 142.6447 57° Northeast  Level Estimated
Sat 06:19:00 AM 36.3072 143.0320 57° Northeast  Level Estimated
Sat 06:20:00 AM 36.3857 143.1851 57° Northeast  Level Estimated
Sat 06:21:00 AM 36.4639 143.3384 58° Northeast  Level Estimated
Sat 06:22:00 AM 36.5420 143.4921 58° Northeast  Level Estimated
Sat 06:23:00 AM 36.6199 143.6460 58° Northeast  Level Estimated
Sat 06:24:00 AM 36.6975 143.8003 58° Northeast  Level Estimated
Sat 06:25:00 AM 36.7750 143.9549 58° Northeast  Level Estimated
Sat 06:26:00 AM 36.8523 144.1098 58° Northeast  Level Estimated
Sat 06:27:00 AM 36.9294 144.2650 58° Northeast  Level Estimated
Sat 06:28:00 AM 37.0062 144.4206 58° Northeast  Level Estimated
Sat 06:29:00 AM 37.0829 144.5764 58° Northeast  Level Estimated
Sat 06:30:00 AM 37.1593 144.7326 58° Northeast  Level Estimated
Sat 06:31:00 AM 37.2356 144.8891 58° Northeast  Level Estimated
Sat 06:32:00 AM 37.3116 145.0459 59° Northeast  Level Estimated
Sat 06:33:00 AM 37.3875 145.2030 59° Northeast  Level Estimated
Sat 06:34:00 AM 37.4631 145.3604 59° Northeast  Level Estimated
Sat 06:35:00 AM 37.5395 145.5202 59° Northeast  Level Estimated
Sat 06:36:00 AM 37.6157 145.6803 59° Northeast  Level Estimated
Sat 06:37:00 AM 37.6917 145.8408 59° Northeast  Level Estimated
Sat 06:38:00 AM 37.7674 146.0016 59° Northeast  Level Estimated
Sat 06:39:00 AM 37.8430 146.1627 59° Northeast  Level Estimated
Sat 06:40:00 AM 37.9183 146.3241 59° Northeast  Level Estimated
Sat 06:41:00 AM 37.9934 146.4859 59° Northeast  Level Estimated
Sat 06:42:00 AM 38.0683 146.6480 60° Northeast  Level Estimated
Sat 06:43:00 AM 38.1429 146.8105 60° Northeast  Level Estimated
Sat 06:44:00 AM 38.2173 146.9732 60° Northeast  Level Estimated
Sat 06:45:00 AM 38.2915 147.1364 60° Northeast  Level Estimated
Sat 06:46:00 AM 38.3655 147.2998 60° Northeast  Level Estimated
Sat 06:47:00 AM 38.4393 147.4636 60° Northeast  Level Estimated
Sat 06:48:00 AM 38.5128 147.6277 60° Northeast  Level Estimated
Sat 06:49:00 AM 38.5861 147.7921 60° Northeast  Level Estimated
Sat 06:50:00 AM 38.6591 147.9569 60° Northeast  Level Estimated
Sat 06:51:00 AM 38.7319 148.1220 60° Northeast  Level Estimated
Sat 06:52:00 AM 38.8046 148.2875 61° Northeast  Level Estimated
Sat 06:53:00 AM 38.8769 148.4532 61° Northeast  Level Estimated
Sat 06:54:00 AM 38.9490 148.6194 61° Northeast  Level Estimated
Sat 06:55:00 AM 39.0209 148.7858 61° Northeast  Level Estimated
Sat 06:56:00 AM 39.0926 148.9526 61° Northeast  Level Estimated
Sat 06:57:00 AM 39.1641 149.1201 61° Northeast  Level Estimated
Sat 06:58:00 AM 39.2354 149.2879 61° Northeast  Level Estimated
Sat 06:59:00 AM 39.3065 149.4560 61° Northeast  Level Estimated
Sat 07:00:00 AM 39.3773 149.6245 61° Northeast  Level Estimated
Sat 07:01:00 AM 39.4479 149.7933 62° Northeast  Level Estimated
Sat 07:02:00 AM 39.5182 149.9625 62° Northeast  Level Estimated
Sat 07:03:00 AM 39.5883 150.1320 62° Northeast  Level Estimated
Sat 07:04:00 AM 39.6582 150.3018 62° Northeast  Level Estimated
Sat 07:05:00 AM 39.7278 150.4720 62° Northeast  Level Estimated
Sat 07:06:00 AM 39.7971 150.6425 62° Northeast  Level Estimated
Sat 07:07:00 AM 39.8662 150.8134 62° Northeast  Level Estimated
Sat 07:08:00 AM 39.9351 150.9846 62° Northeast  Level Estimated
Sat 07:09:00 AM 40.0036 151.1562 62° Northeast  Level Estimated
Sat 07:10:00 AM 40.0720 151.3281 63° Northeast  Level Estimated
Sat 07:11:00 AM 40.1401 151.5003 63° Northeast  Level Estimated
Sat 07:12:00 AM 40.2079 151.6729 63° Northeast  Level Estimated
Sat 07:13:00 AM 40.2755 151.8459 63° Northeast  Level Estimated
Sat 07:14:00 AM 40.3428 152.0191 63° Northeast  Level Estimated
Sat 07:15:00 AM 40.4098 152.1928 63° Northeast  Level Estimated
Sat 07:16:00 AM 40.4766 152.3668 63° Northeast  Level Estimated
Sat 07:17:00 AM 40.5432 152.5411 63° Northeast  Level Estimated
Sat 07:18:00 AM 40.6094 152.7157 63° Northeast  Level Estimated
Sat 07:19:00 AM 40.6754 152.8908 64° Northeast  Level Estimated
Sat 07:20:00 AM 40.7412 153.0661 64° Northeast  Level Estimated
Sat 07:21:00 AM 40.8067 153.2418 64° Northeast  Level Estimated
Sat 07:22:00 AM 40.8719 153.4179 64° Northeast  Level Estimated
Sat 07:23:00 AM 40.9368 153.5943 64° Northeast  Level Estimated
Sat 07:24:00 AM 41.0015 153.7710 64° Northeast  Level Estimated
Sat 07:25:00 AM 41.0659 153.9481 64° Northeast  Level Estimated
Sat 07:26:00 AM 41.1300 154.1256 64° Northeast  Level Estimated
Sat 07:27:00 AM 41.1939 154.3034 64° Northeast  Level Estimated
Sat 07:28:00 AM 41.2575 154.4815 65° Northeast  Level Estimated
Sat 07:29:00 AM 41.3208 154.6600 65° Northeast  Level Estimated
Sat 07:30:00 AM 41.3838 154.8388 65° Northeast  Level Estimated
Sat 07:31:00 AM 41.4465 155.0180 65° Northeast  Level Estimated
Sat 07:32:00 AM 41.5090 155.1975 65° Northeast  Level Estimated
Sat 07:33:00 AM 41.5712 155.3773 65° Northeast  Level Estimated
Sat 07:34:00 AM 41.6331 155.5576 65° Northeast  Level Estimated
Sat 07:35:00 AM 41.6948 155.7381 65° Northeast  Level Estimated
Sat 07:36:00 AM 41.7561 155.9190 66° East  Level Estimated
Sat 07:37:00 AM 41.8172 156.1003 66° East  Level Estimated
Sat 07:38:00 AM 41.8780 156.2818 66° East  Level Estimated
Sat 07:39:00 AM 41.9385 156.4638 66° East  Level Estimated
Sat 07:40:00 AM 41.9987 156.6461 66° East  Level Estimated
Sat 07:41:00 AM 42.0586 156.8287 66° East  Level Estimated
Sat 07:42:00 AM 42.1182 157.0117 66° East  Level Estimated
Sat 07:43:00 AM 42.1775 157.1950 66° East  Level Estimated
Sat 07:44:00 AM 42.2366 157.3786 66° East  Level Estimated
Sat 07:45:00 AM 42.2953 157.5626 67° East  Level Estimated
Sat 07:46:00 AM 42.3538 157.7470 67° East  Level Estimated
Sat 07:47:00 AM 42.4119 157.9317 67° East  Level Estimated
Sat 07:48:00 AM 42.4698 158.1167 67° East  Level Estimated
Sat 07:49:00 AM 42.5274 158.3021 67° East  Level Estimated
Sat 07:50:00 AM 42.5846 158.4878 67° East  Level Estimated
Sat 07:51:00 AM 42.6416 158.6738 67° East  Level Estimated
Sat 07:52:00 AM 42.6983 158.8602 67° East  Level Estimated
Sat 07:53:00 AM 42.7546 159.0469 68° East  Level Estimated
Sat 07:54:00 AM 42.8107 159.2340 68° East  Level Estimated
Sat 07:55:00 AM 42.8664 159.4214 68° East  Level Estimated
Sat 07:56:00 AM 42.9219 159.6092 68° East  Level Estimated
Sat 07:57:00 AM 42.9770 159.7972 68° East  Level Estimated
Sat 07:58:00 AM 43.0318 159.9857 68° East  Level Estimated
Sat 07:59:00 AM 43.0864 160.1744 68° East  Level Estimated
Sat 08:00:00 AM 43.1406 160.3635 68° East  Level Estimated
Sat 08:01:00 AM 43.1945 160.5529 69° East  Level Estimated
Sat 08:02:00 AM 43.2481 160.7427 69° East  Level Estimated
Sat 08:03:00 AM 43.3013 160.9328 69° East  Level Estimated
Sat 08:04:00 AM 43.3543 161.1232 69° East  Level Estimated
Sat 08:05:00 AM 43.4069 161.3140 69° East  Level Estimated
Sat 08:06:00 AM 43.4592 161.5051 69° East  Level Estimated
Sat 08:07:00 AM 43.5112 161.6965 69° East  Level Estimated
Sat 08:08:00 AM 43.5629 161.8882 70° East  Level Estimated
Sat 08:09:00 AM 43.6143 162.0803 70° East  Level Estimated
Sat 08:10:00 AM 43.6653 162.2727 70° East  Level Estimated
Sat 08:11:00 AM 43.7160 162.4654 70° East  Level Estimated
Sat 08:12:00 AM 43.7664 162.6585 70° East  Level Estimated
Sat 08:13:00 AM 43.8165 162.8519 70° East  Level Estimated
Sat 08:14:00 AM 43.8662 163.0455 70° East  Level Estimated
Sat 08:15:00 AM 43.9156 163.2396 70° East  Level Estimated
Sat 08:16:00 AM 43.9647 163.4339 71° East  Level Estimated
Sat 08:17:00 AM 44.0135 163.6286 71° East  Level Estimated
Sat 08:18:00 AM 44.0619 163.8236 71° East  Level Estimated
Sat 08:19:00 AM 44.1100 164.0189 71° East  Level Estimated
Sat 08:20:00 AM 44.1577 164.2145 71° East  Level Estimated
Sat 08:21:00 AM 44.2052 164.4104 71° East  Level Estimated
Sat 08:21:22 AM 44.0000 167.1500 63° Northeast 604 695 39,000  Level Oakland Oceanic (ODAPS)
Sat 08:35:19 AM 45.0000 170.0000 63° Northeast 597 687 39,000  Level Oakland Oceanic (ODAPS)
Sat 08:35:30 AM 45.0333 170.0833 63° Northeast 597 687 39,000  Level Oakland Oceanic (ODAPS)
Sat 08:49:06 AM 46.0667 173.1167 65° Northeast 602 693 39,000  Level Oakland Oceanic (ODAPS)
Sat 09:02:57 AM 47.0167 176.2333 67° East 600 690 39,000  Level Oakland Oceanic (ODAPS)
Sat 09:16:49 AM 47.8500 179.3667 70° East 582 670 39,000 59 Level Oakland Oceanic (ODAPS)
Sat 09:19:50 AM 48.0000 180.0000 86° East 570 656 40,000 72 Climbing Oakland Oceanic (ODAPS)
Sat 09:30:42 AM 48.0833 -177.4167 88° East 563 648 40,000  Level Oakland Oceanic (ODAPS)
Sat 09:44:42 AM 48.1000 -174.2000 90° East 553 636 40,000  Level Oakland Oceanic (ODAPS)
Sat 09:58:30 AM 48.0333 -171.0500 92° East 540 621 40,000  Level Oakland Oceanic (ODAPS)
Sat 10:03:10 AM 48.0000 -170.0000 103° East 546 628 40,000  Level Oakland Oceanic (ODAPS)
Sat 10:12:18 AM 47.6833 -167.9833 104° East 542 624 40,000  Level Oakland Oceanic (ODAPS)
Sat 10:26:10 AM 47.1500 -165.0667 106° East 539 620 40,000  Level Oakland Oceanic (ODAPS)
Sat 10:40:01 AM 46.5333 -162.2167 108° East 531 611 40,000  Level Oakland Oceanic (ODAPS)
Sat 10:51:08 AM 46.0000 -160.0000 102° East 527 606 40,000  Level Oakland Oceanic (ODAPS)
Sat 10:53:54 AM 45.9167 -159.4167 103° East 531 611 40,000  Level Oakland Oceanic (ODAPS)
Sat 11:07:46 AM 45.4333 -156.6000 105° East 525 604 40,000  Level Oakland Oceanic (ODAPS)
Sat 11:21:37 AM 44.9000 -153.8500 107° East 519 597 40,000  Level Oakland Oceanic (ODAPS)
Sat 11:35:30 AM 44.3000 -151.2000 109° East 516 594 40,000  Level Oakland Oceanic (ODAPS)
Sat 11:42:00 AM 44.0000 -150.0000 94° East 539 620 40,000  Level Oakland Oceanic (ODAPS)
Sat 11:49:23 AM 43.9167 -148.5167 95° East 543 625 40,000 47 Level Oakland Oceanic (ODAPS)
Sat 12:03:14 PM 43.6833 -145.7167 97° East 542 624 41,000 36 Climbing Oakland Oceanic (ODAPS)
Sat 12:17:06 PM 43.3833 -142.9167 99° East 548 631 41,000  Level Oakland Oceanic (ODAPS)
Sat 12:30:58 PM 43.0167 -140.0667 109° East 548 631 41,000  Level Oakland Oceanic (ODAPS)
Sat 12:31:00 PM 43.0000 -140.0000 102° East 548 631 41,000  Level FlightAware Transoceanic
Sat 12:31:23 PM 43.0000 -140.0000 102° East 557 641 41,000  Level Oakland Oceanic (ODAPS)
Sat 12:44:50 PM 42.5500 -137.2500 104° East 561 646 41,000  Level Oakland Oceanic (ODAPS)
Sat 12:58:42 PM 42.0167 -134.4667 105° East 560 644 41,000  Level Oakland Oceanic (ODAPS)
Sat 01:12:34 PM 41.4000 -131.6667 107° East 575 662 41,000  Level Oakland Oceanic (ODAPS)
Sat 01:20:53 PM 41.0000 -130.0000 106° East 577 664 41,000  Level Oakland Oceanic (ODAPS)
Sat 01:26:21 PM 40.7500 -128.8667 107° East 574 661 41,000  Level Oakland Oceanic (ODAPS)
Sat 01:33:18 PM 40.4167 -127.4833 107° East 575 662 41,000 -11 Level Oakland Oceanic (ODAPS)
Sat 01:35:37 PM 40.3081 -127.0233 113° Southeast 571 657 40,900  Descending Oakland Center
Sat 01:36:00 PM 40.3000 -127.0000 112° Southeast 574 661 41,000 97 Climbing FlightAware Transoceanic
Sat 01:36:39 PM 40.2511 -126.8311 111° Southeast 565 650 41,000  Level Oakland Center
Sat 01:37:00 PM 40.2404 -126.8101 112° Southeast 574 661 41,000 -98 Level FlightAware Transoceanic
Sat 01:37:40 PM 40.1706 -126.6558 121° Southeast 571 657 40,900  Descending Oakland Center
Sat 01:38:00 PM 40.1804 -126.6206 113° Southeast 574 661 41,000 97 Climbing FlightAware Transoceanic
Sat 01:38:42 PM 40.0722 -126.4994 129° Southeast 566 651 41,000  Level Oakland Center
Sat 01:39:00 PM 40.1202 -126.4314 113° Southeast 575 662 41,000 -98 Level FlightAware Transoceanic
Sat 01:39:43 PM 39.9747 -126.3433 129° Southeast 561 646 40,900  Descending Oakland Center
Sat 01:40:00 PM 40.0596 -126.2425 113° Southeast 575 662 41,000 97 Climbing FlightAware Transoceanic
Sat 01:40:45 PM 39.8769 -126.1858 129° Southeast 560 644 41,000  Level Oakland Center
Sat 01:41:00 PM 39.9988 -126.0540 113° Southeast 575 662 41,000  Level FlightAware Transoceanic
Sat 01:41:46 PM 39.7778 -126.0303 130° Southeast 561 646 41,000  Level Oakland Center
Sat 01:42:48 PM 39.6603 -125.8433 129° Southeast 560 644 41,000  Level Oakland Center
Sat 01:48:21 PM 39.1218 -125.0021 129° Southeast 558 642 41,000  Level FlightAware ADS-B (KSAC)
Sat 01:49:01 PM 39.0820 -124.9410 129° Southeast 558 642 41,000  Level FlightAware ADS-B (KSAC)
Sat 01:49:53 PM 38.9615 -124.7560 129° Southeast 559 643 41,000  Level FlightAware ADS-B (KSAC)
Sat 01:50:23 PM 38.9213 -124.6946 129° Southeast 559 643 41,000  Level FlightAware ADS-B (KSAC)
Sat 01:50:59 PM 38.8495 -124.5853 130° Southeast 558 642 41,000  Level FlightAware ADS-B (KSAC)
Sat 01:52:03 PM 38.7441 -124.4254 130° Southeast 557 641 41,000  Level FlightAware ADS-B (KSAC)
Sat 01:52:43 PM 38.6767 -124.3234 130° Southeast 556 640 41,000  Level FlightAware ADS-B (KSAC)
Sat 01:53:22 PM 38.6122 -124.2263 130° Southeast 555 639 41,000  Level FlightAware ADS-B (KSAC)
Sat 01:54:02 PM 38.5438 -124.1237 130° Southeast 553 636 41,000  Level FlightAware ADS-B (KSAC)
Sat 01:54:42 PM 38.4806 -124.0289 130° Southeast 551 634 41,000  Level FlightAware ADS-B (KSAC)
Sat 01:55:23 PM 38.4109 -123.9248 130° Southeast 550 633 41,000  Level FlightAware ADS-B (KSAC)
Sat 01:56:01 PM 38.3462 -123.8267 129° Southeast 549 632 41,000  Level FlightAware ADS-B (KSAC)
Sat 01:56:42 PM 38.2979 -123.7534 130° Southeast 549 632 41,000  Level FlightAware ADS-B (KSAC)
Sat 01:57:24 PM 38.2132 -123.6255 130° Southeast 550 633 41,000  Level FlightAware ADS-B (KSAC)
Sat 01:58:02 PM 38.1491 -123.5292 130° Southeast 547 629 41,000  Level FlightAware ADS-B (KSAC)
Sat 01:58:43 PM 38.0815 -123.4281 130° Southeast 545 627 41,000  Level FlightAware ADS-B (KSAC)
Sat 01:59:22 PM 38.0156 -123.3298 130° Southeast 544 626 41,000  Level FlightAware ADS-B (KSAC)
Sat 02:00:04 PM 37.9532 -123.2371 130° Southeast 545 627 41,000  Level FlightAware ADS-B (KSAC)
Sat 02:00:43 PM 37.8862 -123.1377 130° Southeast 545 627 41,000  Level FlightAware ADS-B (KSAC)
Sat 02:01:16 PM 37.8334 -123.0597 131° Southeast 547 629 41,000  Level FlightAware ADS-B (EPLL / LCJ)
Sat 02:01:51 PM 37.7752 -122.9739 131° Southeast 548 631 41,000  Level FlightAware ADS-B (EPLL / LCJ)
Sat 02:02:31 PM 37.7278 -122.9039 131° Southeast 548 631 41,000  Level FlightAware ADS-B (EPLL / LCJ)
Sat 02:03:02 PM 37.6538 -122.7954 130° Southeast 548 631 41,000  Level FlightAware ADS-B (KSAC)
Sat 02:03:34 PM 37.6373 -122.7712 131° Southeast 548 631 41,000  Level FlightAware ADS-B (EPLL / LCJ)
Sat 02:04:32 PM 37.5119 -122.5880 131° Southeast 548 631 41,000  Level FlightAware ADS-B (EPLL / LCJ)
Sat 02:04:58 PM 37.4635 -122.5180 131° Southeast 549 632 41,000  Level FlightAware ADS-B
Sat 02:05:22 PM 37.4307 -122.4699 131° Southeast 549 632 41,000  Level FlightAware ADS-B (EPLL / LCJ)
Sat 02:05:30 PM 37.4104 -122.4410 131° Southeast 549 632 41,000  Level FlightAware ADS-B
Sat 02:06:14 PM 37.3376 -122.3351 131° Southeast 549 632 41,000  Level FlightAware ADS-B (EPLL / LCJ)
Sat 02:06:34 PM 37.3050 -122.2880 131° Southeast 548 631 41,000  Level FlightAware ADS-B
Sat 02:07:13 PM 37.2394 -122.1936 131° Southeast 549 632 41,000  Level FlightAware ADS-B (EPLL / LCJ)
Sat 02:07:18 PM 37.2321 -122.1830 131° Southeast 549 632 41,000  Level FlightAware ADS-B
Sat 02:07:49 PM 37.1795 -122.1080 131° Southeast 547 629 41,000  Level FlightAware ADS-B
Sat 02:07:53 PM 37.2095 -122.1506 131° Southeast 547 629 41,000  Level FlightAware ADS-B (EPLL / LCJ)
Sat 02:08:20 PM 37.1283 -122.0340 131° Southeast 547 629 41,000  Level FlightAware ADS-B
Sat 02:08:24 PM 37.1157 -122.0160 131° Southeast 547 629 41,000  Level FlightAware ADS-B (KSAC)
Sat 02:08:52 PM 37.0743 -121.9600 133° Southeast 548 631 41,000  Level FlightAware ADS-B
Sat 02:09:07 PM 37.0488 -121.9261 134° Southeast 548 631 41,000  Level FlightAware ADS-B (EPLL / LCJ)
Sat 02:09:56 PM 36.9620 -121.8130 134° Southeast 548 631 41,000  Level FlightAware ADS-B
Sat 02:10:13 PM 36.9528 -121.8014 134° Southeast 550 633 41,000  Level FlightAware ADS-B (EPLL / LCJ)
Sat 02:10:29 PM 36.9036 -121.7370 134° Southeast 550 633 41,000  Level FlightAware ADS-B
Sat 02:11:01 PM 36.8481 -121.6650 134° Southeast 551 634 41,000  Level FlightAware ADS-B
Sat 02:11:33 PM 36.7906 -121.5890 134° Southeast 550 633 41,000  Level FlightAware ADS-B
Sat 02:11:50 PM 36.7663 -121.5577 134° Southeast 552 635 41,000  Level FlightAware ADS-B (EPLL / LCJ)
Sat 02:12:29 PM 36.6925 -121.4610 134° Southeast 552 635 41,000  Level FlightAware ADS-B
Sat 02:13:03 PM 36.6329 -121.3830 134° Southeast 552 635 41,000  Level FlightAware ADS-B
Sat 02:13:48 PM 36.5530 -121.2800 134° Southeast 554 638 41,000  Level FlightAware ADS-B
Sat 02:14:34 PM 36.4956 -121.2106 134° Southeast 552 635 41,000  Level Oakland Center
Sat 02:20:13 PM 35.8663 -120.4020 134° Southeast 558 642 41,000  Level FlightAware ADS-B
Sat 02:21:25 PM 35.7358 -120.2379 134° Southeast 557 641 41,000  Level FlightAware ADS-B
Sat 02:21:58 PM 35.6777 -120.1652 134° Southeast 557 641 41,000  Level FlightAware ADS-B
Sat 02:22:58 PM 35.5848 -120.0491 134° Southeast 545 627 41,000 -391 Level FlightAware ADS-B
Sat 02:23:30 PM 35.5221 -119.9710 135° Southeast 542 624 40,400 -2,129 Descending FlightAware ADS-B
Sat 02:24:00 PM 35.4595 -119.8933 135° Southeast 556 640 38,800 -2,667 Descending FlightAware ADS-B
Sat 02:25:00 PM 35.3489 -119.7564 134° Southeast 562 647 36,400 -1,935 Descending FlightAware ADS-B
Sat 02:25:33 PM 35.2907 -119.6853 137° Southeast 545 627 35,800 -2,204 Descending FlightAware ADS-B
Sat 02:26:38 PM 35.1591 -119.5584 145° Southeast 551 634 32,800 -2,579 Descending FlightAware ADS-B
Sat 02:27:34 PM 35.0450 -119.4613 145° Southeast 539 620 30,600 -2,103 Descending FlightAware ADS-B
Sat 02:28:35 PM 34.9248 -119.3587 145° Southeast 514 592 28,700 -1,891 Descending FlightAware ADS-B
Sat 02:29:06 PM 34.8657 -119.3089 145° Southeast 502 578 27,700 -2,100 Descending FlightAware ADS-B
Sat 02:29:55 PM 34.7866 -119.2422 145° Southeast 497 572 25,900 -2,135 Descending FlightAware ADS-B
Sat 02:30:50 PM 34.6678 -119.1418 145° Southeast 479 551 24,000 -1,872 Descending FlightAware ADS-B
Sat 02:31:44 PM 34.5704 -119.0601 145° Southeast 477 549 22,500 -1,930 Descending FlightAware ADS-B
Sat 02:32:45 PM 34.4643 -118.9717 145° Southeast 459 528 20,300 -2,412 Descending FlightAware ADS-B
Sat 02:33:26 PM 34.3938 -118.9121 145° Southeast 435 501 18,400 -3,117 Descending FlightAware ADS-B
Sat 02:34:02 PM 34.3262 -118.8697 160° South 423 487 16,300 -3,515 Descending FlightAware ADS-B
Sat 02:35:05 PM 34.2155 -118.8292 163° South 404 465 12,600 -2,526 Descending FlightAware ADS-B
Sat 02:35:56 PM 34.1282 -118.7874 145° Southeast 360 414 11,500 -1,370 Descending FlightAware ADS-B
Sat 02:36:37 PM 34.0834 -118.7494 145° Southeast 344 396 10,500 -1,475 Descending FlightAware ADS-B
Sat 02:36:57 PM 34.0526 -118.7196 128° Southeast 337 388 10,000 -1,235 Descending FlightAware ADS-B
Sat 02:37:11 PM 34.0403 -118.6957 114° Southeast 328 377 9,800 -387 Descending FlightAware ADS-B
Sat 02:37:59 PM 34.0286 -118.6205 98° East 292 336 9,600 -742 Descending FlightAware ADS-B
Sat 02:38:40 PM 34.0207 -118.5509 98° East 292 336 8,700 -1,355 Descending FlightAware ADS-B
Sat 02:39:01 PM 34.0169 -118.5164 98° East 293 337 8,200 -1,463 Descending FlightAware ADS-B
Sat 02:40:02 PM 34.0154 -118.4184 80° East 279 321 6,700 -1,604 Descending FlightAware ADS-B
Sat 02:40:42 PM 34.0229 -118.3620 81° East 269 310 5,500 -1,636 Descending FlightAware ADS-B
Sat 02:41:19 PM 34.0306 -118.3054 81° East 251 289 4,600 -1,031 Descending FlightAware ADS-B
Sat 02:41:46 PM 34.0352 -118.2724 80° East 226 260 4,400 -652 Descending FlightAware ADS-B
Sat 02:42:05 PM 34.0390 -118.2477 79° East 210 242 4,100 -882 Descending FlightAware ADS-B
Sat 02:42:54 PM 34.0413 -118.1946 120° Southeast 195 224 3,400 -944 Descending FlightAware ADS-B
Sat 02:43:34 PM 34.0096 -118.1777 191° South 190 219 2,700 -1,100 Descending FlightAware ADS-B
Sat 02:43:54 PM 33.9945 -118.1876 219° Southwest 189 217 2,300 -984 Descending FlightAware ADS-B
Sat 02:44:35 PM 33.9675 -118.2164 223° Southwest 186 214 1,700 -689 Descending FlightAware ADS-B
Sat 02:44:55 PM 33.9566 -118.2290 231° Southwest 184 212 1,600 -146 Descending FlightAware ADS-B
Sat 02:45:16 PM 33.9507 -118.2498 264° West 167 192 1,600  Level FlightAware ADS-B
Sat 02:45:36 PM 33.9492 -118.2668 263° West 166 191 1,600 -308 Level FlightAware ADS-B
Sat 02:45:55 PM 33.9475 -118.2834 263° West 167 192 1,400 -750 Descending FlightAware ADS-B
Sat 02:46:16 PM 33.9456 -118.3019 263° West 154 177 1,100 -769 Descending FlightAware ADS-B
Sat 02:46:34 PM 33.9445 -118.3131 263° West 147 169 900 -667 Descending FlightAware ADS-B
Sat 02:47:01 PM 33.9420 -118.3375 263° West 148 170 600 -558 Descending FlightAware ADS-B
Sat 02:47:17 PM 33.9410 -118.3466 263° West 149 171 500 -947 Descending FlightAware ADS-B
Sat 02:47:20 PM 33.9400 -118.3566 277° West 147 169 300 -1,000 Descending FlightAware ADS-B
Sat 02:47:41 PM 33.9388 -118.3686 276° West 147 169 100 -92 Descending FlightAware ADS-B
Sat 02:48:25 PM 33.9369 -118.3972 276° West 155 178 200 136 Climbing Los Angeles Center

Login

Don't have an account? Register now (free) for customized features, flight alerts, and more!